Time;durP1;ratioP1;P1;durP2;ratioP2;P2;SDS_P1;SDS_P2;PMS_P1;PMS_P2;Temp;Humidity;BMP_temperature;BMP_pressure;BME280_temperature;BME280_humidity;BME280_pressure;Samples;Min_cycle;Max_cycle;Signal;HPM_P1;HPM_P2
2022/03/15 00:01:21;;;;;;;3.20;1.13;;;;;;;;;;5078668;28;20085;-71
2022/03/15 00:03:48;;;;;;;2.92;2.22;;;;;;;;;;5084720;28;20044;-71
2022/03/15 00:06:14;;;;;;;2.00;1.02;;;;;;;;;;5079593;28;20085;-71
2022/03/15 00:08:40;;;;;;;1.38;1.10;;;;;;;;;;5082082;28;20017;-71
2022/03/15 00:11:06;;;;;;;5.38;1.85;;;;;;;;;;5083694;28;20067;-71
2022/03/15 00:13:37;;;;;;;1.17;0.88;;;;;;;;;;5084907;28;20020;-72
2022/03/15 00:16:03;;;;;;;0.93;0.93;;;;;;;;;;5087681;28;20028;-72
2022/03/15 00:18:30;;;;;;;3.35;1.33;;;;;;;;;;5071012;28;20108;-72
2022/03/15 00:21:01;;;;;;;0.98;0.98;;;;;;;;;;5074927;28;20048;-73
2022/03/15 00:23:27;;;;;;;0.95;0.95;;;;;;;;;;5080957;28;20085;-72
2022/03/15 00:25:53;;;;;;;2.33;1.58;;;;;;;;;;5078466;28;20684;-72
2022/03/15 00:28:21;;;;;;;1.60;1.33;;;;;;;;;;5069532;28;20036;-72
2022/03/15 00:30:47;;;;;;;1.30;1.25;;;;;;;;;;5080403;28;20563;-70
2022/03/15 00:33:13;;;;;;;6.85;2.30;;;;;;;;;;5071738;28;20540;-71
2022/03/15 00:35:40;;;;;;;3.50;1.95;;;;;;;;;;5078646;28;20486;-70
2022/03/15 00:38:06;;;;;;;0.70;0.70;;;;;;;;;;5085898;28;20040;-71
2022/03/15 00:40:32;;;;;;;0.70;0.70;;;;;;;;;;5076293;28;20025;-70
2022/03/15 00:42:58;;;;;;;1.17;0.80;;;;;;;;;;5081149;28;20790;-71
2022/03/15 00:45:24;;;;;;;0.77;0.77;;;;;;;;;;5082615;28;20035;-71
2022/03/15 00:47:54;;;;;;;1.02;1.00;;;;;;;;;;5075244;28;20539;-71
2022/03/15 00:50:20;;;;;;;0.93;0.93;;;;;;;;;;5087908;28;20027;-71
2022/03/15 00:52:46;;;;;;;0.20;0.20;;;;;;;;;;5081921;28;20173;-71
2022/03/15 00:55:12;;;;;;;2.80;1.40;;;;;;;;;;5079175;28;20115;-71
2022/03/15 00:57:38;;;;;;;0.60;0.60;;;;;;;;;;5079836;28;20062;-70
2022/03/15 01:00:05;;;;;;;0.32;0.32;;;;;;;;;;5087319;28;20028;-71
2022/03/15 01:02:31;;;;;;;4.63;1.35;;;;;;;;;;5092618;28;20023;-71
2022/03/15 01:04:57;;;;;;;0.65;0.65;;;;;;;;;;5077734;28;20035;-70
2022/03/15 01:07:23;;;;;;;0.88;0.88;;;;;;;;;;5086113;28;20037;-71
2022/03/15 01:09:49;;;;;;;1.42;0.85;;;;;;;;;;5089016;28;20038;-71
2022/03/15 01:12:15;;;;;;;1.10;1.10;;;;;;;;;;5085752;28;20495;-71
2022/03/15 01:14:41;;;;;;;7.38;1.15;;;;;;;;;;5084097;28;20020;-71
2022/03/15 01:17:07;;;;;;;3.00;1.90;;;;;;;;;;5078421;28;20127;-71
2022/03/15 01:19:33;;;;;;;0.40;0.35;;;;;;;;;;5076550;28;20107;-71
2022/03/15 01:21:59;;;;;;;0.40;0.40;;;;;;;;;;5089962;28;20081;-70
2022/03/15 01:24:25;;;;;;;0.93;0.85;;;;;;;;;;5086465;28;20495;-71
2022/03/15 01:26:52;;;;;;;2.00;1.08;;;;;;;;;;5083886;28;20024;-70
2022/03/15 01:29:20;;;;;;;1.20;1.10;;;;;;;;;;5090542;28;20036;-71
2022/03/15 01:31:46;;;;;;;1.23;1.08;;;;;;;;;;5080488;28;20507;-71
2022/03/15 01:34:12;;;;;;;0.70;0.70;;;;;;;;;;5081891;28;20039;-70
2022/03/15 01:36:38;;;;;;;2.92;1.05;;;;;;;;;;5086868;28;20810;-71
2022/03/15 01:39:04;;;;;;;1.08;1.08;;;;;;;;;;5080628;28;20381;-71
2022/03/15 01:41:35;;;;;;;0.98;0.98;;;;;;;;;;5086446;28;20115;-72
2022/03/15 01:44:01;;;;;;;2.00;1.35;;;;;;;;;;5080931;28;20050;-70
2022/03/15 01:46:27;;;;;;;0.73;0.73;;;;;;;;;;5081818;28;20690;-69
2022/03/15 01:48:53;;;;;;;1.80;0.85;;;;;;;;;;5077839;28;20031;-70
2022/03/15 01:51:19;;;;;;;1.35;1.25;;;;;;;;;;5090752;28;20093;-70
2022/03/15 01:53:45;;;;;;;5.05;1.70;;;;;;;;;;5086796;28;20024;-70
2022/03/15 01:56:11;;;;;;;0.40;0.40;;;;;;;;;;5085303;28;20379;-70
2022/03/15 01:58:37;;;;;;;0.57;0.57;;;;;;;;;;5088968;28;20024;-70
2022/03/15 02:01:03;;;;;;;1.33;1.23;;;;;;;;;;5077186;28;20028;-70
2022/03/15 02:03:30;;;;;;;0.80;0.75;;;;;;;;;;5090032;28;20016;-70
2022/03/15 02:05:56;;;;;;;0.63;0.63;;;;;;;;;;5087482;28;20135;-70
2022/03/15 02:08:22;;;;;;;0.32;0.32;;;;;;;;;;5089845;28;20558;-71
2022/03/15 02:10:48;;;;;;;4.03;1.52;;;;;;;;;;5088780;28;20060;-70
2022/03/15 02:13:14;;;;;;;0.95;0.95;;;;;;;;;;5085579;28;20027;-70
2022/03/15 02:15:40;;;;;;;0.47;0.47;;;;;;;;;;5087684;28;20059;-70
2022/03/15 02:18:06;;;;;;;0.47;0.47;;;;;;;;;;5081080;28;20137;-71
2022/03/15 02:20:40;;;;;;;3.40;0.77;;;;;;;;;;5077732;28;20208;-70
2022/03/15 02:23:06;;;;;;;1.05;0.95;;;;;;;;;;5087685;28;20032;-71
2022/03/15 02:25:32;;;;;;;0.95;0.75;;;;;;;;;;5084722;28;20036;-70
2022/03/15 02:27:58;;;;;;;1.35;1.25;;;;;;;;;;5078912;28;20058;-71
2022/03/15 02:30:23;;;;;;;1.30;1.20;;;;;;;;;;5079164;28;20025;-70
2022/03/15 02:32:49;;;;;;;1.77;1.67;;;;;;;;;;5089158;28;20039;-69
2022/03/15 02:35:16;;;;;;;3.40;0.43;;;;;;;;;;5085313;28;20044;-70
2022/03/15 02:37:43;;;;;;;3.92;1.60;;;;;;;;;;5086481;28;20039;-70
2022/03/15 02:40:09;;;;;;;1.67;0.77;;;;;;;;;;5076103;28;20063;-70
2022/03/15 02:42:35;;;;;;;1.50;0.93;;;;;;;;;;5073313;28;20027;-70
2022/03/15 02:45:01;;;;;;;5.10;1.77;;;;;;;;;;5083037;28;20020;-70
2022/03/15 02:47:27;;;;;;;1.02;0.93;;;;;;;;;;5082352;28;20400;-70
2022/03/15 02:49:53;;;;;;;3.00;0.70;;;;;;;;;;5079780;28;20475;-70
2022/03/15 02:52:19;;;;;;;0.43;0.43;;;;;;;;;;5089216;28;20042;-70
2022/03/15 02:54:51;;;;;;;3.70;1.05;;;;;;;;;;5090273;28;20020;-72
2022/03/15 02:57:21;;;;;;;2.30;1.50;;;;;;;;;;5085915;28;20466;-72
2022/03/15 03:00:05;;;;;;;1.50;1.40;;;;;;;;;;5088050;28;20389;-72
2022/03/15 03:02:33;;;;;;;0.40;0.40;;;;;;;;;;5082700;28;20036;-71
2022/03/15 03:04:59;;;;;;;0.45;0.45;;;;;;;;;;5083774;28;20132;-71
2022/03/15 03:07:25;;;;;;;0.20;0.20;;;;;;;;;;5087493;28;20123;-71
2022/03/15 03:09:51;;;;;;;1.20;1.13;;;;;;;;;;5088549;28;20030;-71
2022/03/15 03:12:18;;;;;;;0.35;0.35;;;;;;;;;;5088722;28;20696;-72
2022/03/15 03:14:47;;;;;;;0.57;0.52;;;;;;;;;;5081094;28;20020;-71
2022/03/15 03:17:13;;;;;;;1.20;1.15;;;;;;;;;;5079278;28;20128;-71
2022/03/15 03:19:40;;;;;;;1.73;1.25;;;;;;;;;;5087384;28;20032;-71
2022/03/15 03:22:06;;;;;;;1.45;1.20;;;;;;;;;;5083036;28;20058;-72
2022/03/15 03:24:33;;;;;;;2.90;0.47;;;;;;;;;;5087829;28;20106;-71
2022/03/15 03:27:00;;;;;;;5.38;1.77;;;;;;;;;;5082787;28;20837;-72
2022/03/15 03:29:28;;;;;;;0.57;0.57;;;;;;;;;;5078544;28;20523;-71
2022/03/15 03:31:55;;;;;;;2.60;0.70;;;;;;;;;;5075279;28;20032;-71
2022/03/15 03:34:21;;;;;;;3.78;2.15;;;;;;;;;;5086681;28;20028;-72
2022/03/15 03:36:47;;;;;;;1.15;0.80;;;;;;;;;;5083238;28;20394;-71
2022/03/15 03:39:13;;;;;;;1.02;0.60;;;;;;;;;;5074278;28;20128;-71
2022/03/15 03:41:39;;;;;;;0.50;0.50;;;;;;;;;;5095197;28;20035;-72
2022/03/15 03:44:05;;;;;;;0.20;0.20;;;;;;;;;;5085700;28;20031;-71
2022/03/15 03:46:31;;;;;;;1.55;1.33;;;;;;;;;;5079770;28;20115;-72
2022/03/15 03:48:57;;;;;;;2.72;1.75;;;;;;;;;;5086215;28;20704;-72
2022/03/15 03:51:23;;;;;;;0.90;0.88;;;;;;;;;;5079569;28;20028;-72
2022/03/15 03:53:49;;;;;;;0.38;0.38;;;;;;;;;;5087908;28;20069;-72
2022/03/15 03:56:15;;;;;;;1.75;1.63;;;;;;;;;;5086640;28;20060;-71
2022/03/15 03:58:41;;;;;;;0.82;0.45;;;;;;;;;;5087039;28;20016;-71
2022/03/15 04:01:07;;;;;;;0.70;0.70;;;;;;;;;;5076601;28;20032;-71
2022/03/15 04:03:33;;;;;;;2.42;1.00;;;;;;;;;;5087733;28;20050;-72
2022/03/15 04:06:03;;;;;;;4.25;2.20;;;;;;;;;;5087449;28;20085;-71
2022/03/15 04:08:31;;;;;;;0.10;0.10;;;;;;;;;;5078642;28;20043;-72
2022/03/15 04:10:57;;;;;;;1.40;1.35;;;;;;;;;;5078066;28;20039;-72
2022/03/15 04:13:24;;;;;;;0.47;0.47;;;;;;;;;;5087118;28;20500;-72
2022/03/15 04:15:50;;;;;;;2.40;2.20;;;;;;;;;;5087178;28;20028;-71
2022/03/15 04:18:15;;;;;;;0.57;0.57;;;;;;;;;;5083260;28;20490;-72
2022/03/15 04:20:42;;;;;;;1.48;1.38;;;;;;;;;;5080337;28;20025;-72
2022/03/15 04:23:11;;;;;;;0.68;0.68;;;;;;;;;;5087518;28;20534;-71
2022/03/15 04:25:38;;;;;;;0.80;0.75;;;;;;;;;;5083832;28;20078;-72
2022/03/15 04:28:04;;;;;;;0.93;0.80;;;;;;;;;;5083512;28;20587;-72
2022/03/15 04:30:31;;;;;;;1.35;1.30;;;;;;;;;;5085745;28;20463;-71
2022/03/15 04:32:58;;;;;;;5.55;2.92;;;;;;;;;;5070265;28;20391;-71
2022/03/15 04:35:24;;;;;;;1.35;1.02;;;;;;;;;;5083008;28;20119;-72
2022/03/15 04:37:52;;;;;;;11.68;1.52;;;;;;;;;;5070974;28;20463;-72
2022/03/15 04:40:18;;;;;;;0.95;0.75;;;;;;;;;;5078789;28;20045;-71
2022/03/15 04:42:45;;;;;;;4.22;1.55;;;;;;;;;;5087509;28;20033;-72
2022/03/15 04:45:11;;;;;;;0.95;0.90;;;;;;;;;;5089741;28;20111;-71
2022/03/15 04:47:37;;;;;;;0.85;0.85;;;;;;;;;;5075919;28;20127;-72
2022/03/15 04:50:03;;;;;;;0.90;0.90;;;;;;;;;;5088031;28;20024;-71
2022/03/15 04:52:29;;;;;;;0.93;0.80;;;;;;;;;;5090244;28;20036;-71
2022/03/15 04:54:55;;;;;;;1.73;1.63;;;;;;;;;;5081221;28;20509;-72
2022/03/15 04:57:21;;;;;;;0.50;0.50;;;;;;;;;;5072534;28;20023;-71
2022/03/15 04:59:47;;;;;;;2.30;1.30;;;;;;;;;;5079059;28;20458;-71
2022/03/15 05:02:13;;;;;;;5.70;2.55;;;;;;;;;;5075701;28;20029;-71
2022/03/15 05:04:38;;;;;;;0.47;0.47;;;;;;;;;;5079361;28;20455;-72
2022/03/15 05:07:05;;;;;;;0.52;0.52;;;;;;;;;;5081596;28;20040;-71
2022/03/15 05:09:30;;;;;;;0.45;0.45;;;;;;;;;;5082159;28;20084;-71
2022/03/15 05:11:58;;;;;;;2.50;1.20;;;;;;;;;;5082923;28;20032;-71
2022/03/15 05:14:24;;;;;;;0.32;0.30;;;;;;;;;;5075258;28;20020;-71
2022/03/15 05:16:50;;;;;;;3.83;1.20;;;;;;;;;;5075006;28;20019;-71
2022/03/15 05:19:16;;;;;;;5.90;1.23;;;;;;;;;;5080962;28;20035;-71
2022/03/15 05:21:42;;;;;;;2.15;1.35;;;;;;;;;;5077419;28;20443;-71
2022/03/15 05:24:08;;;;;;;0.90;0.90;;;;;;;;;;5076633;28;20042;-71
2022/03/15 05:26:34;;;;;;;0.63;0.63;;;;;;;;;;5086865;28;20025;-71
2022/03/15 05:29:04;;;;;;;3.65;1.27;;;;;;;;;;5082542;28;20081;-71
2022/03/15 05:31:31;;;;;;;2.60;2.13;;;;;;;;;;5089683;28;20081;-71
2022/03/15 05:33:57;;;;;;;1.05;1.00;;;;;;;;;;5079338;28;20071;-71
2022/03/15 05:36:23;;;;;;;0.22;0.22;;;;;;;;;;5084844;28;20127;-70
2022/03/15 05:38:48;;;;;;;16.40;1.60;;;;;;;;;;5085686;28;20028;-70
2022/03/15 05:41:15;;;;;;;0.70;0.70;;;;;;;;;;5084791;28;20020;-71
2022/03/15 05:43:41;;;;;;;2.25;2.05;;;;;;;;;;5080626;28;20028;-70
2022/03/15 05:46:06;;;;;;;2.92;1.98;;;;;;;;;;5080095;28;20038;-70
2022/03/15 05:48:34;;;;;;;1.48;1.38;;;;;;;;;;5081559;28;20525;-69
2022/03/15 05:51:00;;;;;;;0.25;0.25;;;;;;;;;;5074916;28;20021;-70
2022/03/15 05:53:26;;;;;;;1.23;1.13;;;;;;;;;;5080124;28;20028;-69
2022/03/15 05:55:52;;;;;;;0.38;0.38;;;;;;;;;;5077444;28;20026;-69
2022/03/15 05:58:18;;;;;;;5.82;1.40;;;;;;;;;;5080043;28;20028;-70
2022/03/15 06:00:44;;;;;;;3.97;0.90;;;;;;;;;;5073221;28;20313;-69
2022/03/15 06:03:13;;;;;;;0.38;0.38;;;;;;;;;;5074768;28;20020;-70
2022/03/15 06:05:39;;;;;;;3.72;1.33;;;;;;;;;;5079675;28;20031;-72
2022/03/15 06:08:06;;;;;;;1.20;1.17;;;;;;;;;;5072681;28;20074;-72
2022/03/15 06:10:32;;;;;;;2.45;1.17;;;;;;;;;;5079203;28;20039;-70
2022/03/15 06:12:58;;;;;;;1.45;1.35;;;;;;;;;;5078621;28;20051;-71
2022/03/15 06:15:24;;;;;;;1.67;1.58;;;;;;;;;;5076828;28;20088;-71
2022/03/15 06:17:56;;;;;;;1.55;1.25;;;;;;;;;;5075365;28;20115;-71
2022/03/15 06:20:22;;;;;;;3.08;1.85;;;;;;;;;;5076073;28;20016;-71
2022/03/15 06:22:48;;;;;;;3.63;3.00;;;;;;;;;;5080395;28;20032;-71
2022/03/15 06:25:14;;;;;;;6.60;1.02;;;;;;;;;;5078319;28;20057;-71
2022/03/15 06:27:40;;;;;;;0.80;0.80;;;;;;;;;;5080983;28;20035;-71
2022/03/15 06:30:06;;;;;;;2.67;2.47;;;;;;;;;;5078899;28;20526;-71
2022/03/15 06:32:33;;;;;;;1.48;1.40;;;;;;;;;;5078234;28;20036;-71
2022/03/15 06:34:59;;;;;;;0.47;0.47;;;;;;;;;;5078237;28;20024;-71
2022/03/15 06:37:28;;;;;;;1.27;1.05;;;;;;;;;;5083724;28;20054;-69
2022/03/15 06:39:55;;;;;;;0.70;0.70;;;;;;;;;;5082513;28;20024;-69
2022/03/15 06:42:21;;;;;;;1.08;1.05;;;;;;;;;;5078946;28;20023;-71
2022/03/15 06:44:47;;;;;;;0.70;0.70;;;;;;;;;;5078841;28;20064;-71
2022/03/15 06:47:13;;;;;;;1.42;1.33;;;;;;;;;;5075960;28;20038;-71
2022/03/15 06:49:39;;;;;;;6.13;2.55;;;;;;;;;;5079825;28;20033;-71
2022/03/15 06:52:05;;;;;;;4.78;1.90;;;;;;;;;;5074158;28;20103;-71
2022/03/15 06:54:31;;;;;;;1.83;1.73;;;;;;;;;;5085266;28;20021;-71
2022/03/15 06:56:57;;;;;;;1.30;1.20;;;;;;;;;;5079095;28;20026;-71
2022/03/15 06:59:23;;;;;;;2.50;1.90;;;;;;;;;;5088933;28;20462;-71
2022/03/15 07:01:49;;;;;;;3.08;2.33;;;;;;;;;;5081465;28;20028;-71
2022/03/15 07:04:17;;;;;;;0.93;0.65;;;;;;;;;;5084587;28;20028;-71
2022/03/15 07:06:43;;;;;;;1.35;1.25;;;;;;;;;;5072162;28;20041;-71
2022/03/15 07:09:09;;;;;;;0.68;0.68;;;;;;;;;;5072745;28;20035;-71
2022/03/15 07:11:35;;;;;;;1.33;1.25;;;;;;;;;;5069578;28;20060;-70
2022/03/15 07:14:03;;;;;;;2.42;1.73;;;;;;;;;;5080877;28;20016;-71
2022/03/15 07:16:29;;;;;;;3.10;1.58;;;;;;;;;;5088517;28;20032;-70
2022/03/15 07:18:57;;;;;;;5.85;2.00;;;;;;;;;;5072435;28;20628;-71
2022/03/15 07:21:23;;;;;;;1.77;1.67;;;;;;;;;;5083357;28;20028;-70
2022/03/15 07:23:48;;;;;;;1.35;0.75;;;;;;;;;;5078666;28;20028;-71
2022/03/15 07:26:14;;;;;;;5.82;1.05;;;;;;;;;;5078080;28;20399;-70
2022/03/15 07:28:40;;;;;;;0.88;0.88;;;;;;;;;;5074551;28;20033;-70
2022/03/15 07:31:06;;;;;;;1.75;1.65;;;;;;;;;;5078784;28;20036;-70
2022/03/15 07:33:32;;;;;;;1.92;1.83;;;;;;;;;;5083872;28;20038;-71
2022/03/15 07:36:01;;;;;;;0.63;0.63;;;;;;;;;;5071031;28;20028;-71
2022/03/15 07:38:27;;;;;;;1.90;1.75;;;;;;;;;;5077311;28;20507;-71
2022/03/15 07:40:54;;;;;;;1.20;1.10;;;;;;;;;;5089983;28;20027;-71
2022/03/15 07:43:23;;;;;;;2.05;1.95;;;;;;;;;;5083086;28;20037;-71
2022/03/15 07:45:49;;;;;;;2.72;1.77;;;;;;;;;;5075736;28;20127;-71
2022/03/15 07:48:15;;;;;;;1.75;1.65;;;;;;;;;;5070870;28;20020;-69
2022/03/15 07:50:41;;;;;;;3.15;1.38;;;;;;;;;;5083018;28;20070;-71
2022/03/15 07:53:07;;;;;;;3.67;1.50;;;;;;;;;;5080758;28;20499;-71
2022/03/15 07:55:34;;;;;;;1.60;1.42;;;;;;;;;;5068575;28;20127;-70
2022/03/15 07:58:00;;;;;;;1.20;1.17;;;;;;;;;;5086208;28;20039;-71
2022/03/15 08:00:26;;;;;;;3.70;1.10;;;;;;;;;;5069708;28;20029;-71
2022/03/15 08:02:52;;;;;;;1.13;1.05;;;;;;;;;;5074954;28;20027;-71
2022/03/15 08:05:18;;;;;;;0.95;0.70;;;;;;;;;;5082828;28;20029;-71
2022/03/15 08:07:44;;;;;;;1.35;1.30;;;;;;;;;;5084051;28;20135;-70
2022/03/15 08:10:10;;;;;;;1.20;1.20;;;;;;;;;;5079382;28;20111;-71
2022/03/15 08:12:37;;;;;;;1.30;1.30;;;;;;;;;;5082319;28;20109;-70
2022/03/15 08:15:05;;;;;;;3.85;1.95;;;;;;;;;;5089371;28;20483;-75
2022/03/15 08:17:31;;;;;;;2.25;1.75;;;;;;;;;;5078749;28;20036;-73
2022/03/15 08:19:57;;;;;;;9.48;2.28;;;;;;;;;;5082526;28;20114;-73
2022/03/15 08:22:24;;;;;;;1.90;1.80;;;;;;;;;;5079381;28;20062;-73
2022/03/15 08:24:50;;;;;;;1.08;0.85;;;;;;;;;;5082937;28;20112;-73
2022/03/15 08:27:16;;;;;;;1.50;1.38;;;;;;;;;;5090032;28;20485;-73
2022/03/15 08:29:42;;;;;;;1.33;1.30;;;;;;;;;;5086332;28;20063;-74
2022/03/15 08:32:10;;;;;;;0.75;0.75;;;;;;;;;;5093103;28;20032;-73
2022/03/15 08:34:37;;;;;;;1.90;1.45;;;;;;;;;;5080746;28;20383;-73
2022/03/15 08:37:03;;;;;;;4.50;2.78;;;;;;;;;;5086305;28;20244;-73
2022/03/15 08:39:29;;;;;;;4.32;2.63;;;;;;;;;;5088303;28;20035;-73
2022/03/15 08:41:55;;;;;;;1.45;1.17;;;;;;;;;;5091586;28;20363;-74
2022/03/15 08:44:22;;;;;;;2.47;1.90;;;;;;;;;;5083295;28;20040;-73
2022/03/15 08:46:49;;;;;;;6.03;1.83;;;;;;;;;;5085255;28;20049;-73
2022/03/15 08:49:16;;;;;;;2.55;1.27;;;;;;;;;;5073388;28;20020;-74
2022/03/15 08:51:42;;;;;;;1.30;1.30;;;;;;;;;;5085819;28;20027;-74
2022/03/15 08:54:08;;;;;;;1.40;1.30;;;;;;;;;;5085205;28;20028;-71
2022/03/15 08:56:35;;;;;;;0.65;0.65;;;;;;;;;;5072762;28;20032;-71
2022/03/15 08:59:01;;;;;;;3.75;1.67;;;;;;;;;;5083586;28;20025;-73
2022/03/15 09:01:27;;;;;;;1.80;1.55;;;;;;;;;;5088346;28;20770;-72
2022/03/15 09:03:52;;;;;;;3.70;2.08;;;;;;;;;;5089275;28;20475;-71
2022/03/15 09:06:18;;;;;;;0.77;0.77;;;;;;;;;;5082546;28;20102;-72
2022/03/15 09:08:45;;;;;;;4.30;2.55;;;;;;;;;;5084931;28;20036;-71
2022/03/15 09:11:11;;;;;;;2.78;2.50;;;;;;;;;;5091509;28;20103;-71
2022/03/15 09:13:37;;;;;;;16.17;2.47;;;;;;;;;;5080019;28;20052;-72
2022/03/15 09:16:05;;;;;;;3.33;2.08;;;;;;;;;;5089110;28;20042;-71
2022/03/15 09:18:31;;;;;;;5.47;2.08;;;;;;;;;;5073267;28;20533;-72
2022/03/15 09:20:57;;;;;;;3.88;1.63;;;;;;;;;;5089494;28;20020;-71
2022/03/15 09:23:23;;;;;;;2.65;1.58;;;;;;;;;;5076277;28;20558;-71
2022/03/15 09:25:49;;;;;;;1.27;1.17;;;;;;;;;;5074352;28;20103;-72
2022/03/15 09:28:16;;;;;;;17.08;1.77;;;;;;;;;;5079944;28;20023;-71
2022/03/15 09:30:43;;;;;;;5.45;1.33;;;;;;;;;;5069856;28;20495;-68
2022/03/15 09:33:09;;;;;;;2.47;1.30;;;;;;;;;;5083229;28;20032;-81
2022/03/15 09:35:35;;;;;;;2.40;2.00;;;;;;;;;;5082673;28;20020;-69
2022/03/15 09:38:01;;;;;;;8.70;2.40;;;;;;;;;;5081420;28;20506;-69
2022/03/15 09:40:27;;;;;;;1.10;0.80;;;;;;;;;;5079078;28;20024;-69
2022/03/15 09:42:58;;;;;;;3.42;2.53;;;;;;;;;;5082942;28;20032;-69
2022/03/15 09:45:24;;;;;;;7.65;2.50;;;;;;;;;;5086347;28;20032;-70
2022/03/15 09:47:51;;;;;;;2.78;0.90;;;;;;;;;;5074562;28;20029;-70
2022/03/15 09:50:18;;;;;;;1.55;1.15;;;;;;;;;;5084936;28;20104;-69
2022/03/15 09:52:44;;;;;;;7.22;3.50;;;;;;;;;;5085256;28;20035;-70
2022/03/15 09:55:11;;;;;;;1.52;1.42;;;;;;;;;;5078884;28;20020;-70
2022/03/15 09:57:38;;;;;;;2.17;0.93;;;;;;;;;;5081211;28;20092;-68
2022/03/15 10:00:05;;;;;;;4.07;2.15;;;;;;;;;;5081277;28;20024;-68
2022/03/15 10:02:31;;;;;;;21.92;1.33;;;;;;;;;;5081520;28;20022;-74
2022/03/15 10:04:57;;;;;;;0.75;0.75;;;;;;;;;;5083859;28;20087;-70
2022/03/15 10:07:23;;;;;;;2.30;2.10;;;;;;;;;;5072488;28;20036;-69
2022/03/15 10:09:52;;;;;;;0.82;0.82;;;;;;;;;;5074667;28;20047;-69
2022/03/15 10:12:18;;;;;;;4.38;0.82;;;;;;;;;;5080643;28;20040;-69
2022/03/15 10:14:45;;;;;;;1.40;1.20;;;;;;;;;;5085114;28;20024;-70
2022/03/15 10:17:14;;;;;;;3.10;1.88;;;;;;;;;;5080210;28;20032;-69
2022/03/15 10:19:50;;;;;;;0.80;0.80;;;;;;;;;;5075583;28;20032;-72
2022/03/15 10:22:20;;;;;;;2.13;1.90;;;;;;;;;;5080510;28;20111;-71
2022/03/15 10:24:46;;;;;;;3.75;1.77;;;;;;;;;;5082839;28;20027;-72
2022/03/15 10:27:12;;;;;;;2.47;2.08;;;;;;;;;;5075458;28;20031;-71
2022/03/15 10:29:39;;;;;;;1.58;1.48;;;;;;;;;;5080863;28;20020;-71
2022/03/15 10:32:05;;;;;;;4.65;1.92;;;;;;;;;;5086980;28;20530;-72
2022/03/15 10:34:31;;;;;;;1.13;1.02;;;;;;;;;;5084228;28;20601;-71
2022/03/15 10:36:57;;;;;;;0.60;0.52;;;;;;;;;;5081247;28;20604;-71
2022/03/15 10:39:24;;;;;;;4.97;3.15;;;;;;;;;;5080241;28;20020;-72
2022/03/15 10:42:00;;;;;;;1.00;0.88;;;;;;;;;;5086139;28;20028;-72
2022/03/15 10:44:36;;;;;;;0.43;0.43;;;;;;;;;;5071051;28;20029;-72
2022/03/15 10:47:07;;;;;;;2.42;1.38;;;;;;;;;;5077646;28;20082;-73
2022/03/15 10:49:48;;;;;;;5.53;2.30;;;;;;;;;;5089258;28;20536;-73
2022/03/15 10:52:15;;;;;;;0.75;0.57;;;;;;;;;;5074923;28;20493;-74
2022/03/15 10:54:42;;;;;;;2.10;1.77;;;;;;;;;;5079660;28;20093;-74
2022/03/15 10:57:08;;;;;;;5.13;2.28;;;;;;;;;;5072505;28;20114;-74
2022/03/15 10:59:34;;;;;;;0.73;0.73;;;;;;;;;;5074464;28;20036;-73
2022/03/15 11:02:01;;;;;;;1.85;1.20;;;;;;;;;;5072150;28;20902;-72
2022/03/15 11:04:27;;;;;;;5.72;0.82;;;;;;;;;;5074004;28;20036;-71
2022/03/15 11:06:55;;;;;;;0.95;0.95;;;;;;;;;;5065109;28;20289;-71
2022/03/15 11:09:21;;;;;;;0.90;0.88;;;;;;;;;;5068973;28;20028;-72
2022/03/15 11:11:52;;;;;;;0.52;0.35;;;;;;;;;;5080356;28;20039;-72
2022/03/15 11:14:28;;;;;;;1.90;0.77;;;;;;;;;;5074451;28;20042;-72
2022/03/15 11:16:54;;;;;;;0.60;0.60;;;;;;;;;;5063314;28;20372;-72
2022/03/15 11:19:20;;;;;;;4.15;2.25;;;;;;;;;;5072950;28;21782;-71
2022/03/15 11:21:47;;;;;;;1.08;0.98;;;;;;;;;;5070602;28;20035;-72
2022/03/15 11:24:18;;;;;;;2.15;1.30;;;;;;;;;;5070862;28;20024;-72
2022/03/15 11:26:45;;;;;;;2.83;1.77;;;;;;;;;;5074679;28;20475;-72
2022/03/15 11:29:12;;;;;;;2.08;0.85;;;;;;;;;;5080045;28;20029;-71
2022/03/15 11:31:38;;;;;;;0.50;0.50;;;;;;;;;;5066174;28;20059;-72
2022/03/15 11:34:05;;;;;;;1.92;1.77;;;;;;;;;;5074083;28;20024;-72
2022/03/15 11:36:32;;;;;;;0.75;0.75;;;;;;;;;;5068122;28;20712;-72
2022/03/15 11:38:58;;;;;;;1.67;0.82;;;;;;;;;;5074309;28;20116;-72
2022/03/15 11:41:24;;;;;;;0.75;0.75;;;;;;;;;;5070153;28;20040;-72
2022/03/15 11:44:00;;;;;;;0.95;0.93;;;;;;;;;;5080223;28;20028;-72
2022/03/15 11:46:35;;;;;;;11.30;1.42;;;;;;;;;;5068026;28;20628;-72
2022/03/15 11:49:19;;;;;;;6.38;2.58;;;;;;;;;;5077144;28;20364;-73
2022/03/15 11:51:53;;;;;;;3.72;1.08;;;;;;;;;;5069173;28;20025;-72
2022/03/15 11:54:38;;;;;;;1.60;0.60;;;;;;;;;;5064889;28;20031;-73
2022/03/15 11:57:05;;;;;;;1.27;1.17;;;;;;;;;;5065959;28;22005;-73
2022/03/15 11:59:51;;;;;;;1.70;1.08;;;;;;;;;;5084987;28;20066;-73
2022/03/15 12:02:27;;;;;;;1.67;0.80;;;;;;;;;;5070307;28;20025;-73
2022/03/15 12:04:53;;;;;;;0.68;0.68;;;;;;;;;;5075552;28;20033;-73
2022/03/15 12:07:36;;;;;;;1.50;1.27;;;;;;;;;;5066668;28;20131;-72
2022/03/15 12:10:08;;;;;;;0.75;0.75;;;;;;;;;;5072210;28;20081;-73
2022/03/15 12:12:34;;;;;;;0.10;0.10;;;;;;;;;;5070196;28;20681;-72
2022/03/15 12:15:11;;;;;;;0.47;0.22;;;;;;;;;;5066279;28;20752;-73
2022/03/15 12:17:40;;;;;;;1.25;0.65;;;;;;;;;;5065106;28;20426;-73
2022/03/15 12:20:16;;;;;;;1.33;0.47;;;;;;;;;;5065471;28;20024;-73
2022/03/15 12:22:43;;;;;;;0.47;0.47;;;;;;;;;;5078249;28;20032;-73
2022/03/15 12:25:17;;;;;;;1.80;1.20;;;;;;;;;;5079855;28;20040;-73
2022/03/15 12:27:51;;;;;;;3.80;0.68;;;;;;;;;;5077004;28;20106;-74
2022/03/15 12:30:28;;;;;;;1.13;1.00;;;;;;;;;;5072320;28;20086;-74
2022/03/15 12:32:55;;;;;;;2.17;1.48;;;;;;;;;;5076462;28;20071;-73
2022/03/15 12:35:25;;;;;;;1.05;0.60;;;;;;;;;;5076165;28;20428;-74
2022/03/15 12:37:51;;;;;;;0.57;0.57;;;;;;;;;;5072824;28;20056;-73
2022/03/15 12:40:17;;;;;;;7.90;0.95;;;;;;;;;;5073213;28;20050;-73
2022/03/15 12:42:54;;;;;;;1.35;1.25;;;;;;;;;;5067487;28;20054;-73
2022/03/15 12:45:20;;;;;;;1.60;1.15;;;;;;;;;;5078178;28;20089;-74
2022/03/15 12:47:47;;;;;;;0.45;0.45;;;;;;;;;;5078651;28;20085;-74
2022/03/15 12:50:14;;;;;;;2.38;1.30;;;;;;;;;;5067029;28;20050;-74
2022/03/15 12:52:45;;;;;;;1.00;0.90;;;;;;;;;;5070542;28;20029;-73
2022/03/15 12:55:29;;;;;;;1.35;1.02;;;;;;;;;;5069456;28;20055;-73
2022/03/15 12:58:03;;;;;;;24.38;0.85;;;;;;;;;;5067292;28;20078;-74
2022/03/15 13:00:34;;;;;;;1.90;1.17;;;;;;;;;;5079427;28;20089;-74
2022/03/15 13:03:00;;;;;;;;;;;;;;;;;;5084620;28;20028;-73
2022/03/15 13:05:27;;;;;;;0.13;0.13;;;;;;;;;;5088215;28;19934;-75
2022/03/15 13:07:56;;;;;;;0.30;0.30;;;;;;;;;;5086016;28;20035;-74
2022/03/15 13:10:36;;;;;;;0.20;0.20;;;;;;;;;;5087553;28;20036;-73
2022/03/15 13:13:03;;;;;;;0.73;0.73;;;;;;;;;;5073558;28;20042;-74
2022/03/15 13:15:29;;;;;;;1.10;0.68;;;;;;;;;;5082144;28;20054;-74
2022/03/15 13:17:59;;;;;;;0.47;0.47;;;;;;;;;;5081465;28;20028;-74
2022/03/15 13:20:26;;;;;;;1.17;0.80;;;;;;;;;;5074989;28;20491;-74
2022/03/15 13:23:03;;;;;;;0.60;0.60;;;;;;;;;;5081283;28;20107;-74
2022/03/15 13:25:43;;;;;;;0.20;0.20;;;;;;;;;;5084695;28;20028;-74
2022/03/15 13:28:16;;;;;;;2.55;1.50;;;;;;;;;;5084031;28;20646;-73
2022/03/15 13:30:45;;;;;;;5.50;1.38;;;;;;;;;;5081712;28;20390;-74
2022/03/15 13:33:15;;;;;;;0.47;0.47;;;;;;;;;;5078260;28;20029;-74
2022/03/15 13:35:42;;;;;;;1.35;1.23;;;;;;;;;;5086974;28;20024;-74
2022/03/15 13:38:17;;;;;;;2.97;1.90;;;;;;;;;;5091781;28;20047;-74
2022/03/15 13:40:45;;;;;;;0.75;0.73;;;;;;;;;;5087414;28;20118;-75
2022/03/15 13:43:14;;;;;;;0.77;0.75;;;;;;;;;;5097187;28;20088;-75
2022/03/15 13:45:40;;;;;;;3.40;0.95;;;;;;;;;;5073393;28;20036;-75
2022/03/15 13:48:06;;;;;;;0.52;0.52;;;;;;;;;;5074846;28;20090;-75
2022/03/15 13:50:32;;;;;;;0.68;0.55;;;;;;;;;;5090858;28;20630;-75
2022/03/15 13:52:58;;;;;;;1.77;1.15;;;;;;;;;;5089950;28;20031;-75
2022/03/15 13:55:28;;;;;;;0.80;0.75;;;;;;;;;;5086619;28;20020;-75
2022/03/15 13:57:54;;;;;;;0.60;0.60;;;;;;;;;;5078696;28;20060;-76
2022/03/15 14:00:23;;;;;;;1.50;1.35;;;;;;;;;;5074239;28;20052;-75
2022/03/15 14:02:50;;;;;;;1.38;1.10;;;;;;;;;;5071808;28;20035;-75
2022/03/15 14:05:18;;;;;;;6.00;1.10;;;;;;;;;;5070417;28;20028;-74
2022/03/15 14:07:44;;;;;;;0.22;0.22;;;;;;;;;;5077322;28;20036;-74
2022/03/15 14:10:18;;;;;;;1.38;1.02;;;;;;;;;;5074472;28;20032;-74
2022/03/15 14:12:44;;;;;;;0.90;0.57;;;;;;;;;;5081775;28;20146;-74
2022/03/15 14:15:13;;;;;;;1.08;0.80;;;;;;;;;;5072695;28;20025;-74
2022/03/15 14:17:48;;;;;;;0.30;0.30;;;;;;;;;;5082155;28;20536;-74
2022/03/15 14:20:14;;;;;;;0.40;0.38;;;;;;;;;;5076030;28;20115;-74
2022/03/15 14:22:48;;;;;;;0.45;0.45;;;;;;;;;;5075955;28;20032;-74
2022/03/15 14:25:20;;;;;;;1.20;1.10;;;;;;;;;;5082788;28;20715;-74
2022/03/15 14:27:45;;;;;;;4.10;1.63;;;;;;;;;;5083507;28;20036;-74
2022/03/15 14:30:14;;;;;;;0.80;0.80;;;;;;;;;;5083070;28;20028;-74
2022/03/15 14:33:00;;;;;;;2.50;1.77;;;;;;;;;;5077648;28;20016;-74
2022/03/15 14:35:30;;;;;;;0.98;0.98;;;;;;;;;;5078569;28;20086;-75
2022/03/15 14:38:23;;;;;;;1.53;1.10;;;;;;;;;;5072748;28;20120;-74
2022/03/15 14:40:52;;;;;;;0.85;0.85;;;;;;;;;;5064297;28;20562;-74
2022/03/15 14:43:20;;;;;;;3.67;0.88;;;;;;;;;;5075272;28;20044;-74
2022/03/15 14:45:46;;;;;;;2.72;1.60;;;;;;;;;;5073327;28;20028;-74